sensor_id;sensor_type;location;lat;lon;timestamp;pressure;altitude;pressure_sealevel;temperature;humidity
13478;BME280;12598;62.382;17.344;2023-07-22T00:00:33;100094.81;;;26.85;33.10
13478;BME280;12598;62.382;17.344;2023-07-22T00:01:35;100103.78;;;26.86;32.94
13478;BME280;12598;62.382;17.344;2023-07-22T00:02:38;100095.88;;;26.84;33.02
13478;BME280;12598;62.382;17.344;2023-07-22T00:03:40;100091.50;;;26.83;33.13
13478;BME280;12598;62.382;17.344;2023-07-22T00:04:42;100097.75;;;26.84;33.24
13478;BME280;12598;62.382;17.344;2023-07-22T00:05:44;100089.84;;;26.82;32.79
13478;BME280;12598;62.382;17.344;2023-07-22T00:06:46;100083.16;;;26.78;32.80
13478;BME280;12598;62.382;17.344;2023-07-22T00:07:48;100093.59;;;26.81;33.19
13478;BME280;12598;62.382;17.344;2023-07-22T00:08:50;100076.31;;;26.76;33.16
13478;BME280;12598;62.382;17.344;2023-07-22T00:09:52;100057.63;;;26.61;33.11
13478;BME280;12598;62.382;17.344;2023-07-22T00:10:53;100090.28;;;26.79;33.22
13478;BME280;12598;62.382;17.344;2023-07-22T00:11:55;100086.94;;;26.77;32.88
13478;BME280;12598;62.382;17.344;2023-07-22T00:12:57;100087.78;;;26.78;33.01
13478;BME280;12598;62.382;17.344;2023-07-22T00:13:59;100087.97;;;26.76;33.20
13478;BME280;12598;62.382;17.344;2023-07-22T00:15:01;100086.13;;;26.77;33.02
13478;BME280;12598;62.382;17.344;2023-07-22T00:16:03;100084.03;;;26.72;33.34
13478;BME280;12598;62.382;17.344;2023-07-22T00:17:06;100085.72;;;26.73;33.21
13478;BME280;12598;62.382;17.344;2023-07-22T00:18:08;100083.69;;;26.69;33.59
13478;BME280;12598;62.382;17.344;2023-07-22T00:19:10;100093.84;;;26.73;33.27
13478;BME280;12598;62.382;17.344;2023-07-22T00:20:12;100088.66;;;26.72;33.15
13478;BME280;12598;62.382;17.344;2023-07-22T00:21:15;100088.66;;;26.72;33.17
13478;BME280;12598;62.382;17.344;2023-07-22T00:22:17;100094.09;;;26.72;33.22
13478;BME280;12598;62.382;17.344;2023-07-22T00:23:19;100093.47;;;26.70;33.36
13478;BME280;12598;62.382;17.344;2023-07-22T00:24:21;100098.66;;;26.71;33.08
13478;BME280;12598;62.382;17.344;2023-07-22T00:25:24;100091.19;;;26.67;33.27
13478;BME280;12598;62.382;17.344;2023-07-22T00:26:26;100091.81;;;26.69;33.15
13478;BME280;12598;62.382;17.344;2023-07-22T00:27:29;100099.09;;;26.68;33.01
13478;BME280;12598;62.382;17.344;2023-07-22T00:28:31;100092.88;;;26.68;33.33
13478;BME280;12598;62.382;17.344;2023-07-22T00:29:33;100096.63;;;26.67;33.34
13478;BME280;12598;62.382;17.344;2023-07-22T00:30:35;100100.38;;;26.66;33.33
13478;BME280;12598;62.382;17.344;2023-07-22T00:31:37;100094.13;;;26.65;33.27
13478;BME280;12598;62.382;17.344;2023-07-22T00:32:38;100092.91;;;26.61;33.33
13478;BME280;12598;62.382;17.344;2023-07-22T00:33:42;100089.13;;;26.62;33.13
13478;BME280;12598;62.382;17.344;2023-07-22T00:34:44;100097.06;;;26.64;33.12
13478;BME280;12598;62.382;17.344;2023-07-22T00:35:49;100073.34;;;26.53;33.36
13478;BME280;12598;62.382;17.344;2023-07-22T00:36:52;100095.16;;;26.64;33.27
13478;BME280;12598;62.382;17.344;2023-07-22T00:37:54;100096.22;;;26.63;33.16
13478;BME280;12598;62.382;17.344;2023-07-22T00:38:56;100084.34;;;26.58;33.38
13478;BME280;12598;62.382;17.344;2023-07-22T00:39:58;100082.09;;;26.55;33.48
13478;BME280;12598;62.382;17.344;2023-07-22T00:41:00;100095.00;;;26.59;33.04
13478;BME280;12598;62.382;17.344;2023-07-22T00:42:02;100089.56;;;26.59;33.30
13478;BME280;12598;62.382;17.344;2023-07-22T00:43:04;100086.06;;;26.59;33.45
13478;BME280;12598;62.382;17.344;2023-07-22T00:44:06;100087.06;;;26.58;32.85
13478;BME280;12598;62.382;17.344;2023-07-22T00:45:08;100084.34;;;26.58;33.25
13478;BME280;12598;62.382;17.344;2023-07-22T00:46:10;100086.25;;;26.57;33.15
13478;BME280;12598;62.382;17.344;2023-07-22T00:47:13;100091.69;;;26.57;33.80
13478;BME280;12598;62.382;17.344;2023-07-22T00:48:15;100084.59;;;26.56;33.27
13478;BME280;12598;62.382;17.344;2023-07-22T00:49:18;100088.34;;;26.55;33.53
13478;BME280;12598;62.382;17.344;2023-07-22T00:50:21;100089.41;;;26.54;33.12
13478;BME280;12598;62.382;17.344;2023-07-22T00:51:23;100078.59;;;26.48;33.16
13478;BME280;12598;62.382;17.344;2023-07-22T00:52:25;100079.59;;;26.53;33.52
13478;BME280;12598;62.382;17.344;2023-07-22T00:53:28;100081.47;;;26.53;33.49
13478;BME280;12598;62.382;17.344;2023-07-22T00:54:30;100084.19;;;26.53;33.32
13478;BME280;12598;62.382;17.344;2023-07-22T00:55:33;100080.47;;;26.47;33.29
13478;BME280;12598;62.382;17.344;2023-07-22T00:56:36;100082.53;;;26.52;33.34
13478;BME280;12598;62.382;17.344;2023-07-22T00:57:38;100069.19;;;26.44;33.53
13478;BME280;12598;62.382;17.344;2023-07-22T00:58:40;100055.91;;;26.36;33.66
13478;BME280;12598;62.382;17.344;2023-07-22T00:59:43;100084.63;;;26.50;33.52
13478;BME280;12598;62.382;17.344;2023-07-22T01:00:45;100088.19;;;26.50;33.46
13478;BME280;12598;62.382;17.344;2023-07-22T01:01:47;100084.63;;;26.50;33.34
13478;BME280;12598;62.382;17.344;2023-07-22T01:02:49;100079.22;;;26.43;33.53
13478;BME280;12598;62.382;17.344;2023-07-22T01:03:51;100083.19;;;26.47;33.49
13478;BME280;12598;62.382;17.344;2023-07-22T01:04:53;100090.47;;;26.47;33.42
13478;BME280;12598;62.382;17.344;2023-07-22T01:05:55;100080.47;;;26.47;33.81
13478;BME280;12598;62.382;17.344;2023-07-22T01:07:01;100092.16;;;26.48;33.33
13478;BME280;12598;62.382;17.344;2023-07-22T01:08:08;100090.03;;;26.50;33.37
13478;BME280;12598;62.382;17.344;2023-07-22T01:09:10;100087.56;;;26.48;33.61
13478;BME280;12598;62.382;17.344;2023-07-22T01:10:13;100085.06;;;26.47;33.49
13478;BME280;12598;62.382;17.344;2023-07-22T01:11:15;100095.09;;;26.46;33.54
13478;BME280;12598;62.382;17.344;2023-07-22T01:12:17;100087.97;;;26.45;33.66
13478;BME280;12598;62.382;17.344;2023-07-22T01:13:19;100097.97;;;26.45;33.67
13478;BME280;12598;62.382;17.344;2023-07-22T01:14:21;100097.16;;;26.44;33.58
13478;BME280;12598;62.382;17.344;2023-07-22T01:15:24;100088.41;;;26.42;33.64
13478;BME280;12598;62.382;17.344;2023-07-22T01:16:27;100054.94;;;26.24;33.51
13478;BME280;12598;62.382;17.344;2023-07-22T01:17:30;100095.50;;;26.43;33.47
13478;BME280;12598;62.382;17.344;2023-07-22T01:18:35;100081.31;;;26.41;33.64
13478;BME280;12598;62.382;17.344;2023-07-22T01:19:38;100088.00;;;26.39;33.53
13478;BME280;12598;62.382;17.344;2023-07-22T01:20:40;100096.75;;;26.41;33.48
13478;BME280;12598;62.382;17.344;2023-07-22T01:21:43;100092.16;;;26.41;33.40
13478;BME280;12598;62.382;17.344;2023-07-22T01:22:52;100082.16;;;26.35;33.63
13478;BME280;12598;62.382;17.344;2023-07-22T01:23:54;100097.59;;;26.41;33.45
13478;BME280;12598;62.382;17.344;2023-07-22T01:24:56;100088.44;;;26.36;33.82
13478;BME280;12598;62.382;17.344;2023-07-22T01:25:58;100090.94;;;26.37;33.52
13478;BME280;12598;62.382;17.344;2023-07-22T01:27:00;100101.34;;;26.40;33.25
13478;BME280;12598;62.382;17.344;2023-07-22T01:28:09;100095.31;;;26.38;33.78
13478;BME280;12598;62.382;17.344;2023-07-22T01:29:12;100097.78;;;26.40;33.30
13478;BME280;12598;62.382;17.344;2023-07-22T01:30:14;100098.03;;;26.38;33.55
13478;BME280;12598;62.382;17.344;2023-07-22T01:31:15;100096.38;;;26.37;33.70
13478;BME280;12598;62.382;17.344;2023-07-22T01:32:18;100107.22;;;26.37;33.56
13478;BME280;12598;62.382;17.344;2023-07-22T01:33:21;100101.78;;;26.37;33.45
13478;BME280;12598;62.382;17.344;2023-07-22T01:34:23;100079.72;;;26.27;33.81
13478;BME280;12598;62.382;17.344;2023-07-22T01:35:28;100091.78;;;26.31;33.58
13478;BME280;12598;62.382;17.344;2023-07-22T01:36:30;100065.38;;;26.20;33.86
13478;BME280;12598;62.382;17.344;2023-07-22T01:37:32;100104.72;;;26.36;33.33
13478;BME280;12598;62.382;17.344;2023-07-22T01:38:34;100090.13;;;26.30;33.48
13478;BME280;12598;62.382;17.344;2023-07-22T01:39:37;100099.47;;;26.34;33.50
13478;BME280;12598;62.382;17.344;2023-07-22T01:40:39;100090.56;;;26.27;33.73
13478;BME280;12598;62.382;17.344;2023-07-22T01:41:41;100076.03;;;26.22;33.43
13478;BME280;12598;62.382;17.344;2023-07-22T01:42:43;100104.28;;;26.32;33.46
13478;BME280;12598;62.382;17.344;2023-07-22T01:43:45;100100.78;;;26.32;33.32
13478;BME280;12598;62.382;17.344;2023-07-22T01:44:47;100105.13;;;26.33;33.58
13478;BME280;12598;62.382;17.344;2023-07-22T01:45:49;100105.56;;;26.30;33.40
13478;BME280;12598;62.382;17.344;2023-07-22T01:46:51;100101.81;;;26.31;33.50
13478;BME280;12598;62.382;17.344;2023-07-22T01:47:53;100098.25;;;26.30;33.05
13478;BME280;12598;62.382;17.344;2023-07-22T01:48:55;100109.09;;;26.30;33.58
13478;BME280;12598;62.382;17.344;2023-07-22T01:49:57;100094.13;;;26.28;33.46
13478;BME280;12598;62.382;17.344;2023-07-22T01:50:59;100106.38;;;26.30;33.35
13478;BME280;12598;62.382;17.344;2023-07-22T01:52:01;100097.44;;;26.30;33.29
13478;BME280;12598;62.382;17.344;2023-07-22T01:53:03;100087.66;;;26.22;33.76
13478;BME280;12598;62.382;17.344;2023-07-22T01:54:07;100097.66;;;26.28;33.39
13478;BME280;12598;62.382;17.344;2023-07-22T01:55:10;100102.03;;;26.29;33.27
13478;BME280;12598;62.382;17.344;2023-07-22T01:56:13;100095.78;;;26.29;33.19
13478;BME280;12598;62.382;17.344;2023-07-22T01:57:15;100100.59;;;26.27;33.53
13478;BME280;12598;62.382;17.344;2023-07-22T01:58:16;100099.75;;;26.26;33.44
13478;BME280;12598;62.382;17.344;2023-07-22T01:59:18;100089.78;;;26.20;33.43
13478;BME280;12598;62.382;17.344;2023-07-22T02:00:20;100105.16;;;26.26;33.44
13478;BME280;12598;62.382;17.344;2023-07-22T02:01:22;100098.06;;;26.25;33.53
13478;BME280;12598;62.382;17.344;2023-07-22T02:02:24;100076.47;;;26.12;33.78
13478;BME280;12598;62.382;17.344;2023-07-22T02:03:27;100099.13;;;26.24;33.38
13478;BME280;12598;62.382;17.344;2023-07-22T02:04:29;100106.22;;;26.25;33.41
13478;BME280;12598;62.382;17.344;2023-07-22T02:05:31;100106.22;;;26.25;33.48
13478;BME280;12598;62.382;17.344;2023-07-22T02:06:33;100101.84;;;26.24;33.74
13478;BME280;12598;62.382;17.344;2023-07-22T02:07:36;100100.19;;;26.23;33.29
13478;BME280;12598;62.382;17.344;2023-07-22T02:08:39;100107.50;;;26.23;33.46
13478;BME280;12598;62.382;17.344;2023-07-22T02:09:41;100110.22;;;26.23;33.24
13478;BME280;12598;62.382;17.344;2023-07-22T02:10:43;100112.06;;;26.22;33.73
13478;BME280;12598;62.382;17.344;2023-07-22T02:11:45;100101.22;;;26.22;33.61
13478;BME280;12598;62.382;17.344;2023-07-22T02:12:47;100115.81;;;26.21;33.93
13478;BME280;12598;62.382;17.344;2023-07-22T02:13:49;100104.16;;;26.21;33.72
13478;BME280;12598;62.382;17.344;2023-07-22T02:14:51;100110.41;;;26.21;33.33
13478;BME280;12598;62.382;17.344;2023-07-22T02:15:53;100101.66;;;26.19;33.23
13478;BME280;12598;62.382;17.344;2023-07-22T02:16:55;100101.47;;;26.14;33.71
13478;BME280;12598;62.382;17.344;2023-07-22T02:17:57;100105.66;;;26.17;33.66
13478;BME280;12598;62.382;17.344;2023-07-22T02:19:00;100111.44;;;26.20;33.60
13478;BME280;12598;62.382;17.344;2023-07-22T02:20:03;100104.81;;;26.16;33.74
13478;BME280;12598;62.382;17.344;2023-07-22T02:21:06;100101.66;;;26.19;33.60
13478;BME280;12598;62.382;17.344;2023-07-22T02:22:08;100103.56;;;26.19;33.81
13478;BME280;12598;62.382;17.344;2023-07-22T02:23:10;100102.72;;;26.18;33.49
13478;BME280;12598;62.382;17.344;2023-07-22T02:24:12;100097.09;;;26.13;33.60
13478;BME280;12598;62.382;17.344;2023-07-22T02:25:15;100099.38;;;26.16;33.38
13478;BME280;12598;62.382;17.344;2023-07-22T02:26:17;100097.72;;;26.15;34.02
13478;BME280;12598;62.382;17.344;2023-07-22T02:27:19;100093.16;;;26.16;33.50
13478;BME280;12598;62.382;17.344;2023-07-22T02:28:21;100102.28;;;26.15;33.58
13478;BME280;12598;62.382;17.344;2023-07-22T02:29:24;100104.00;;;26.16;33.49
13478;BME280;12598;62.382;17.344;2023-07-22T02:30:26;100102.28;;;26.15;33.69
13478;BME280;12598;62.382;17.344;2023-07-22T02:31:28;100102.28;;;26.15;33.57
13478;BME280;12598;62.382;17.344;2023-07-22T02:32:30;100100.63;;;26.14;33.70
13478;BME280;12598;62.382;17.344;2023-07-22T02:33:32;100099.81;;;26.13;33.48
13478;BME280;12598;62.382;17.344;2023-07-22T02:34:34;100101.47;;;26.14;33.82
13478;BME280;12598;62.382;17.344;2023-07-22T02:35:36;100091.06;;;26.11;33.56
13478;BME280;12598;62.382;17.344;2023-07-22T02:36:38;100101.69;;;26.13;33.48
13478;BME280;12598;62.382;17.344;2023-07-22T02:37:40;100098.97;;;26.13;33.54
13478;BME280;12598;62.382;17.344;2023-07-22T02:38:42;100103.56;;;26.12;33.56
13478;BME280;12598;62.382;17.344;2023-07-22T02:39:47;100089.84;;;26.07;33.60
13478;BME280;12598;62.382;17.344;2023-07-22T02:40:49;100098.97;;;26.13;33.54
13478;BME280;12598;62.382;17.344;2023-07-22T02:41:50;100102.72;;;26.12;33.40
13478;BME280;12598;62.382;17.344;2023-07-22T02:42:52;100102.72;;;26.12;33.73
13478;BME280;12598;62.382;17.344;2023-07-22T02:43:54;100093.00;;;26.04;33.19
13478;BME280;12598;62.382;17.344;2023-07-22T02:44:56;100098.59;;;26.09;33.80
13478;BME280;12598;62.382;17.344;2023-07-22T02:46:03;100098.59;;;26.09;33.67
13478;BME280;12598;62.382;17.344;2023-07-22T02:47:06;100096.50;;;26.11;33.57
13478;BME280;12598;62.382;17.344;2023-07-22T02:48:07;100098.59;;;26.09;33.75
13478;BME280;12598;62.382;17.344;2023-07-22T02:49:10;100100.25;;;26.10;33.81
13478;BME280;12598;62.382;17.344;2023-07-22T02:50:13;100097.34;;;26.05;33.49
13478;BME280;12598;62.382;17.344;2023-07-22T02:51:14;100093.59;;;26.06;33.73
13478;BME280;12598;62.382;17.344;2023-07-22T02:52:16;100102.34;;;26.08;33.47
13478;BME280;12598;62.382;17.344;2023-07-22T02:53:19;100100.44;;;26.09;33.69
13478;BME280;12598;62.382;17.344;2023-07-22T02:54:21;100104.44;;;26.06;33.80
13478;BME280;12598;62.382;17.344;2023-07-22T02:55:22;100103.38;;;26.07;33.45
13478;BME280;12598;62.382;17.344;2023-07-22T02:56:24;100095.06;;;26.02;33.66
13478;BME280;12598;62.382;17.344;2023-07-22T02:57:27;100099.84;;;26.07;33.87
13478;BME280;12598;62.382;17.344;2023-07-22T02:58:29;100099.22;;;26.05;33.70
13478;BME280;12598;62.382;17.344;2023-07-22T02:59:32;100104.88;;;26.03;33.55
13478;BME280;12598;62.382;17.344;2023-07-22T03:00:34;100094.84;;;26.04;33.85
13478;BME280;12598;62.382;17.344;2023-07-22T03:01:36;100102.78;;;26.05;33.42
13478;BME280;12598;62.382;17.344;2023-07-22T03:02:39;100100.28;;;26.04;33.74
13478;BME280;12598;62.382;17.344;2023-07-22T03:03:41;100099.44;;;26.03;33.63
13478;BME280;12598;62.382;17.344;2023-07-22T03:04:43;100098.41;;;26.04;33.67
13478;BME280;12598;62.382;17.344;2023-07-22T03:05:45;100100.28;;;26.04;33.53
13478;BME280;12598;62.382;17.344;2023-07-22T03:06:49;100100.28;;;26.04;33.72
13478;BME280;12598;62.382;17.344;2023-07-22T03:07:50;100099.44;;;26.03;33.88
13478;BME280;12598;62.382;17.344;2023-07-22T03:08:54;100088.44;;;25.98;33.53
13478;BME280;12598;62.382;17.344;2023-07-22T03:09:56;100099.44;;;26.03;33.74
13478;BME280;12598;62.382;17.344;2023-07-22T03:10:58;100099.44;;;26.03;33.78
13478;BME280;12598;62.382;17.344;2023-07-22T03:12:00;100099.44;;;26.03;33.42
13478;BME280;12598;62.382;17.344;2023-07-22T03:13:03;100104.88;;;26.03;33.95
13478;BME280;12598;62.382;17.344;2023-07-22T03:14:05;100095.06;;;26.02;33.51
13478;BME280;12598;62.382;17.344;2023-07-22T03:15:07;100095.91;;;26.03;33.50
13478;BME280;12598;62.382;17.344;2023-07-22T03:16:11;100093.19;;;26.03;34.13
13478;BME280;12598;62.382;17.344;2023-07-22T03:17:13;100098.00;;;26.01;33.60
13478;BME280;12598;62.382;17.344;2023-07-22T03:18:18;100102.16;;;26.03;33.72
13478;BME280;12598;62.382;17.344;2023-07-22T03:19:20;100102.34;;;26.02;33.55
13478;BME280;12598;62.382;17.344;2023-07-22T03:20:22;100099.44;;;26.03;33.60
13478;BME280;12598;62.382;17.344;2023-07-22T03:21:26;100103.22;;;26.02;33.71
13478;BME280;12598;62.382;17.344;2023-07-22T03:22:28;100096.13;;;26.01;33.78
13478;BME280;12598;62.382;17.344;2023-07-22T03:23:30;100100.31;;;25.97;33.83
13478;BME280;12598;62.382;17.344;2023-07-22T03:24:31;100098.03;;;25.94;33.98
13478;BME280;12598;62.382;17.344;2023-07-22T03:25:34;100097.81;;;25.96;34.05
13478;BME280;12598;62.382;17.344;2023-07-22T03:26:36;100099.88;;;26.00;34.10
13478;BME280;12598;62.382;17.344;2023-07-22T03:27:39;100099.88;;;26.00;33.77
13478;BME280;12598;62.382;17.344;2023-07-22T03:28:41;100105.31;;;26.00;33.74
13478;BME280;12598;62.382;17.344;2023-07-22T03:29:43;100108.22;;;25.99;33.75
13478;BME280;12598;62.382;17.344;2023-07-22T03:30:45;100103.63;;;25.99;33.92
13478;BME280;12598;62.382;17.344;2023-07-22T03:31:47;100104.69;;;25.98;33.71
13478;BME280;12598;62.382;17.344;2023-07-22T03:32:49;100100.31;;;25.97;33.89
13478;BME280;12598;62.382;17.344;2023-07-22T03:33:52;100100.94;;;25.99;33.70
13478;BME280;12598;62.382;17.344;2023-07-22T03:34:54;100097.38;;;25.99;33.73
13478;BME280;12598;62.382;17.344;2023-07-22T03:35:56;100102.78;;;25.99;34.00
13478;BME280;12598;62.382;17.344;2023-07-22T03:36:58;100096.56;;;25.98;33.63
13478;BME280;12598;62.382;17.344;2023-07-22T03:38:00;100092.63;;;25.94;33.94
13478;BME280;12598;62.382;17.344;2023-07-22T03:39:02;100104.69;;;25.98;34.04
13478;BME280;12598;62.382;17.344;2023-07-22T03:40:05;100100.31;;;25.97;34.06
13478;BME280;12598;62.382;17.344;2023-07-22T03:41:21;100098.84;;;26.01;33.63
13478;BME280;12598;62.382;17.344;2023-07-22T03:42:23;100099.88;;;26.00;33.73
13478;BME280;12598;62.382;17.344;2023-07-22T03:43:25;100097.38;;;25.99;34.12
13478;BME280;12598;62.382;17.344;2023-07-22T03:44:26;100087.59;;;25.91;33.79
13478;BME280;12598;62.382;17.344;2023-07-22T03:45:31;100101.13;;;25.98;33.77
13478;BME280;12598;62.382;17.344;2023-07-22T03:46:33;100100.31;;;25.97;34.15
13478;BME280;12598;62.382;17.344;2023-07-22T03:47:35;100094.91;;;25.97;34.15
13478;BME280;12598;62.382;17.344;2023-07-22T03:48:37;100105.72;;;25.97;33.91
13478;BME280;12598;62.382;17.344;2023-07-22T03:49:39;100107.59;;;25.97;34.06
13478;BME280;12598;62.382;17.344;2023-07-22T03:50:41;100100.09;;;25.92;34.17
13478;BME280;12598;62.382;17.344;2023-07-22T03:51:43;100101.56;;;25.95;33.70
13478;BME280;12598;62.382;17.344;2023-07-22T03:52:45;100098.22;;;25.93;33.57
13478;BME280;12598;62.382;17.344;2023-07-22T03:53:46;100106.97;;;25.95;34.12
13478;BME280;12598;62.382;17.344;2023-07-22T03:54:48;100105.94;;;25.96;34.43
13478;BME280;12598;62.382;17.344;2023-07-22T03:55:50;100096.16;;;25.88;33.88
13478;BME280;12598;62.382;17.344;2023-07-22T03:56:52;100106.16;;;25.94;34.01
13478;BME280;12598;62.382;17.344;2023-07-22T03:57:54;100103.47;;;25.94;33.99
13478;BME280;12598;62.382;17.344;2023-07-22T03:58:56;100107.81;;;25.95;33.76
13478;BME280;12598;62.382;17.344;2023-07-22T03:59:58;100099.47;;;25.90;33.97
13478;BME280;12598;62.382;17.344;2023-07-22T04:01:00;100108.22;;;25.92;33.94
13478;BME280;12598;62.382;17.344;2023-07-22T04:02:02;100104.47;;;25.93;33.92
13478;BME280;12598;62.382;17.344;2023-07-22T04:03:04;100107.19;;;25.93;33.98
13478;BME280;12598;62.382;17.344;2023-07-22T04:04:06;100096.16;;;25.88;33.86
13478;BME280;12598;62.382;17.344;2023-07-22T04:05:08;100105.50;;;25.92;34.24
13478;BME280;12598;62.382;17.344;2023-07-22T04:06:11;100111.59;;;25.94;33.67
13478;BME280;12598;62.382;17.344;2023-07-22T04:07:12;100108.88;;;25.94;34.21
13478;BME280;12598;62.382;17.344;2023-07-22T04:08:14;100091.59;;;25.89;33.91
13478;BME280;12598;62.382;17.344;2023-07-22T04:09:16;100103.47;;;25.94;33.96
13478;BME280;12598;62.382;17.344;2023-07-22T04:10:18;100104.47;;;25.93;34.30
13478;BME280;12598;62.382;17.344;2023-07-22T04:11:20;100099.28;;;25.92;34.11
13478;BME280;12598;62.382;17.344;2023-07-22T04:12:22;100107.19;;;25.93;33.87
13478;BME280;12598;62.382;17.344;2023-07-22T04:13:25;100097.38;;;25.92;33.52
13478;BME280;12598;62.382;17.344;2023-07-22T04:14:27;100106.16;;;25.94;34.09
13478;BME280;12598;62.382;17.344;2023-07-22T04:15:29;100103.66;;;25.93;33.88
13478;BME280;12598;62.382;17.344;2023-07-22T04:16:34;100097.63;;;25.91;34.01
13478;BME280;12598;62.382;17.344;2023-07-22T04:17:36;100103.47;;;25.94;33.92
13478;BME280;12598;62.382;17.344;2023-07-22T04:18:38;100104.47;;;25.93;33.91
13478;BME280;12598;62.382;17.344;2023-07-22T04:19:41;100091.59;;;25.89;33.82
13478;BME280;12598;62.382;17.344;2023-07-22T04:20:48;100106.16;;;25.94;34.22
13478;BME280;12598;62.382;17.344;2023-07-22T04:21:49;100099.06;;;25.93;33.99
13478;BME280;12598;62.382;17.344;2023-07-22T04:22:51;100099.06;;;25.93;34.07
13478;BME280;12598;62.382;17.344;2023-07-22T04:23:54;100104.28;;;25.95;34.34
13478;BME280;12598;62.382;17.344;2023-07-22T04:24:56;100105.13;;;25.95;33.95
13478;BME280;12598;62.382;17.344;2023-07-22T04:25:58;100106.16;;;25.94;34.50
13478;BME280;12598;62.382;17.344;2023-07-22T04:27:01;100089.69;;;25.89;33.96
13478;BME280;12598;62.382;17.344;2023-07-22T04:28:04;100104.06;;;25.96;34.08
13478;BME280;12598;62.382;17.344;2023-07-22T04:29:06;100104.06;;;25.96;34.08
13478;BME280;12598;62.382;17.344;2023-07-22T04:30:10;100094.91;;;25.91;34.17
13478;BME280;12598;62.382;17.344;2023-07-22T04:31:16;100100.94;;;25.99;34.31
13478;BME280;12598;62.382;17.344;2023-07-22T04:32:18;100107.16;;;26.00;34.29
13478;BME280;12598;62.382;17.344;2023-07-22T04:33:19;100108.22;;;25.99;34.26
13478;BME280;12598;62.382;17.344;2023-07-22T04:34:21;100105.31;;;26.00;34.18
13478;BME280;12598;62.382;17.344;2023-07-22T04:35:23;100106.97;;;26.01;34.50
13478;BME280;12598;62.382;17.344;2023-07-22T04:36:25;100110.72;;;26.00;34.28
13478;BME280;12598;62.382;17.344;2023-07-22T04:37:27;100105.91;;;26.02;34.41
13478;BME280;12598;62.382;17.344;2023-07-22T04:38:29;100115.72;;;26.03;34.24
13478;BME280;12598;62.382;17.344;2023-07-22T04:39:31;100119.22;;;26.04;34.43
13478;BME280;12598;62.382;17.344;2023-07-22T04:40:35;100106.13;;;26.01;34.25
13478;BME280;12598;62.382;17.344;2023-07-22T04:41:36;100114.44;;;26.06;34.40
13478;BME280;12598;62.382;17.344;2023-07-22T04:42:38;100111.53;;;26.07;34.50
13478;BME280;12598;62.382;17.344;2023-07-22T04:43:40;100113.38;;;26.07;34.44
13478;BME280;12598;62.382;17.344;2023-07-22T04:44:42;100116.94;;;26.07;34.43
13478;BME280;12598;62.382;17.344;2023-07-22T04:45:46;100116.94;;;26.07;34.29
13478;BME280;12598;62.382;17.344;2023-07-22T04:46:51;100117.31;;;26.11;34.07
13478;BME280;12598;62.382;17.344;2023-07-22T04:47:53;100111.28;;;26.09;34.08
13478;BME280;12598;62.382;17.344;2023-07-22T04:48:55;100113.19;;;26.08;34.29
13478;BME280;12598;62.382;17.344;2023-07-22T04:49:59;100110.66;;;26.07;34.70
13478;BME280;12598;62.382;17.344;2023-07-22T04:51:01;100114.44;;;26.06;34.29
13478;BME280;12598;62.382;17.344;2023-07-22T04:52:03;100114.63;;;26.11;34.24
13478;BME280;12598;62.382;17.344;2023-07-22T04:53:05;100108.81;;;26.07;34.41
13478;BME280;12598;62.382;17.344;2023-07-22T04:54:08;100098.41;;;26.04;34.37
13478;BME280;12598;62.382;17.344;2023-07-22T04:55:10;100110.25;;;26.10;34.48
13478;BME280;12598;62.382;17.344;2023-07-22T04:56:12;100115.66;;;26.10;34.24
13478;BME280;12598;62.382;17.344;2023-07-22T04:57:14;100117.31;;;26.11;34.38
13478;BME280;12598;62.382;17.344;2023-07-22T04:58:18;100112.75;;;26.11;34.52
13478;BME280;12598;62.382;17.344;2023-07-22T04:59:21;100118.16;;;26.11;34.12
13478;BME280;12598;62.382;17.344;2023-07-22T05:00:23;100115.28;;;26.06;34.38
13478;BME280;12598;62.382;17.344;2023-07-22T05:01:25;100114.63;;;26.11;34.25
13478;BME280;12598;62.382;17.344;2023-07-22T05:02:27;100118.16;;;26.11;34.45
13478;BME280;12598;62.382;17.344;2023-07-22T05:03:29;100123.59;;;26.11;34.43
13478;BME280;12598;62.382;17.344;2023-07-22T05:04:31;100122.75;;;26.11;34.18
13478;BME280;12598;62.382;17.344;2023-07-22T05:05:33;100110.06;;;26.05;34.46
13478;BME280;12598;62.382;17.344;2023-07-22T05:06:35;100126.50;;;26.10;34.61
13478;BME280;12598;62.382;17.344;2023-07-22T05:07:38;100129.00;;;26.11;34.54
13478;BME280;12598;62.382;17.344;2023-07-22T05:08:39;100133.59;;;26.11;34.38
13478;BME280;12598;62.382;17.344;2023-07-22T05:09:42;100125.69;;;26.09;34.54
13478;BME280;12598;62.382;17.344;2023-07-22T05:10:44;100122.78;;;26.04;34.46
13478;BME280;12598;62.382;17.344;2023-07-22T05:11:46;100130.88;;;26.11;34.54
13478;BME280;12598;62.382;17.344;2023-07-22T05:12:48;100137.34;;;26.10;34.55
13478;BME280;12598;62.382;17.344;2023-07-22T05:13:50;100130.88;;;26.11;34.46
13478;BME280;12598;62.382;17.344;2023-07-22T05:14:52;100136.53;;;26.09;34.55
13478;BME280;12598;62.382;17.344;2023-07-22T05:15:54;100131.97;;;26.03;34.52
13478;BME280;12598;62.382;17.344;2023-07-22T05:16:56;100130.25;;;26.09;34.38
13478;BME280;12598;62.382;17.344;2023-07-22T05:17:58;100132.78;;;26.10;34.40
13478;BME280;12598;62.382;17.344;2023-07-22T05:18:59;100125.69;;;26.09;34.66
13478;BME280;12598;62.382;17.344;2023-07-22T05:20:02;100119.03;;;26.05;34.71
13478;BME280;12598;62.382;17.344;2023-07-22T05:21:05;100131.09;;;26.09;34.41
13478;BME280;12598;62.382;17.344;2023-07-22T05:22:08;100123.41;;;26.06;34.89